Bartow, West Virginia
Current Conditions -  °F | °C
As of 12:51 AM on Sunday 26 Oct 2014 (Local Time) from KEKN Reporting Station
Few Clouds Few Clouds  
Wind Chill: 58°   Ceiling: Unl
Heat Index: 58°   Visibility: 10mi
Dew Point: 52°   Wind: 15mph
Humidity: 81%   Direction: 280°W
Pressure: 29.87"   Gusts: 30mph
Location:  38.54°N, 79.78°W
Report Text: KEKN 260451Z AUTO 28013G26KT 10SM FEW022 14/11 A2987 RMK AO2 PK WND 29032/0405 SLP116 T01440111 401831011 TSNO
Loading
Personal Weather Stations






























Interactive Weather Map
Tropical Storm Tracking
New forecast layout! Learn more

10-Day Weather Forecast

Advertisements
Track Severe Weather on mobile